sensor_id;sensor_type;location;lat;lon;timestamp;P1;durP1;ratioP1;P2;durP2;ratioP2
59302;SDS011;45074;52.764;6.896;2023-10-08T00:03:44;1.55;;;1.00;;
59302;SDS011;45074;52.764;6.896;2023-10-08T00:06:14;2.58;;;0.90;;
59302;SDS011;45074;52.764;6.896;2023-10-08T00:08:40;1.50;;;1.00;;
59302;SDS011;45074;52.764;6.896;2023-10-08T00:11:06;3.65;;;0.90;;
59302;SDS011;45074;52.764;6.896;2023-10-08T00:13:35;1.58;;;0.85;;
59302;SDS011;45074;52.764;6.896;2023-10-08T00:16:08;1.33;;;0.73;;
59302;SDS011;45074;52.764;6.896;2023-10-08T00:18:42;3.05;;;0.95;;
59302;SDS011;45074;52.764;6.896;2023-10-08T00:21:14;1.58;;;0.90;;
59302;SDS011;45074;52.764;6.896;2023-10-08T00:23:40;3.80;;;1.10;;
59302;SDS011;45074;52.764;6.896;2023-10-08T00:26:20;2.55;;;0.90;;
59302;SDS011;45074;52.764;6.896;2023-10-08T00:28:53;2.40;;;1.05;;
59302;SDS011;45074;52.764;6.896;2023-10-08T00:31:25;6.25;;;2.22;;
59302;SDS011;45074;52.764;6.896;2023-10-08T00:34:03;5.22;;;3.20;;
59302;SDS011;45074;52.764;6.896;2023-10-08T00:36:30;6.65;;;3.80;;
59302;SDS011;45074;52.764;6.896;2023-10-08T00:38:56;2.75;;;1.40;;
59302;SDS011;45074;52.764;6.896;2023-10-08T00:41:28;2.33;;;1.48;;
59302;SDS011;45074;52.764;6.896;2023-10-08T00:43:56;2.88;;;1.35;;
59302;SDS011;45074;52.764;6.896;2023-10-08T00:46:24;3.80;;;1.33;;
59302;SDS011;45074;52.764;6.896;2023-10-08T00:49:01;1.88;;;1.25;;
59302;SDS011;45074;52.764;6.896;2023-10-08T00:51:46;2.38;;;1.30;;
59302;SDS011;45074;52.764;6.896;2023-10-08T00:54:12;3.03;;;1.48;;
59302;SDS011;45074;52.764;6.896;2023-10-08T00:56:45;5.43;;;2.60;;
59302;SDS011;45074;52.764;6.896;2023-10-08T00:59:15;8.32;;;3.80;;
59302;SDS011;45074;52.764;6.896;2023-10-08T01:01:45;7.28;;;3.30;;
59302;SDS011;45074;52.764;6.896;2023-10-08T01:04:26;5.57;;;2.65;;
59302;SDS011;45074;52.764;6.896;2023-10-08T01:06:52;4.88;;;2.88;;
59302;SDS011;45074;52.764;6.896;2023-10-08T01:09:21;6.78;;;3.53;;
59302;SDS011;45074;52.764;6.896;2023-10-08T01:14:46;8.60;;;3.22;;
59302;SDS011;45074;52.764;6.896;2023-10-08T01:17:18;6.85;;;3.65;;
59302;SDS011;45074;52.764;6.896;2023-10-08T01:19:48;6.20;;;2.95;;
59302;SDS011;45074;52.764;6.896;2023-10-08T01:22:33;7.93;;;5.10;;
59302;SDS011;45074;52.764;6.896;2023-10-08T01:24:59;8.60;;;5.13;;
59302;SDS011;45074;52.764;6.896;2023-10-08T01:27:29;5.88;;;2.60;;
59302;SDS011;45074;52.764;6.896;2023-10-08T01:29:59;3.78;;;2.00;;
59302;SDS011;45074;52.764;6.896;2023-10-08T01:32:35;4.25;;;2.00;;
59302;SDS011;45074;52.764;6.896;2023-10-08T01:35:01;4.10;;;1.73;;
59302;SDS011;45074;52.764;6.896;2023-10-08T01:37:30;3.15;;;1.67;;
59302;SDS011;45074;52.764;6.896;2023-10-08T01:39:59;3.60;;;1.90;;
59302;SDS011;45074;52.764;6.896;2023-10-08T01:42:28;4.03;;;1.98;;
59302;SDS011;45074;52.764;6.896;2023-10-08T01:44:57;7.45;;;4.95;;
59302;SDS011;45074;52.764;6.896;2023-10-08T01:47:23;6.63;;;3.80;;
59302;SDS011;45074;52.764;6.896;2023-10-08T01:49:50;9.23;;;6.60;;
59302;SDS011;45074;52.764;6.896;2023-10-08T01:52:23;6.95;;;3.58;;
59302;SDS011;45074;52.764;6.896;2023-10-08T01:54:49;4.88;;;2.30;;
59302;SDS011;45074;52.764;6.896;2023-10-08T01:57:19;5.97;;;2.30;;
59302;SDS011;45074;52.764;6.896;2023-10-08T01:59:45;3.35;;;2.00;;
59302;SDS011;45074;52.764;6.896;2023-10-08T02:02:11;5.72;;;2.28;;
59302;SDS011;45074;52.764;6.896;2023-10-08T02:04:39;3.63;;;1.83;;
59302;SDS011;45074;52.764;6.896;2023-10-08T02:07:05;4.47;;;2.00;;
59302;SDS011;45074;52.764;6.896;2023-10-08T02:09:40;4.47;;;2.00;;
59302;SDS011;45074;52.764;6.896;2023-10-08T02:12:06;4.20;;;1.70;;
59302;SDS011;45074;52.764;6.896;2023-10-08T02:14:33;3.28;;;1.77;;
59302;SDS011;45074;52.764;6.896;2023-10-08T02:17:00;4.55;;;2.00;;
59302;SDS011;45074;52.764;6.896;2023-10-08T02:19:31;4.90;;;1.80;;
59302;SDS011;45074;52.764;6.896;2023-10-08T02:21:57;5.22;;;2.13;;
59302;SDS011;45074;52.764;6.896;2023-10-08T02:24:23;5.32;;;2.75;;
59302;SDS011;45074;52.764;6.896;2023-10-08T02:26:53;3.58;;;2.00;;
59302;SDS011;45074;52.764;6.896;2023-10-08T02:29:20;5.80;;;2.88;;
59302;SDS011;45074;52.764;6.896;2023-10-08T02:34:16;4.63;;;2.15;;
59302;SDS011;45074;52.764;6.896;2023-10-08T02:36:44;4.57;;;2.10;;
59302;SDS011;45074;52.764;6.896;2023-10-08T02:39:12;5.32;;;2.63;;
59302;SDS011;45074;52.764;6.896;2023-10-08T02:41:42;4.78;;;2.30;;
59302;SDS011;45074;52.764;6.896;2023-10-08T02:44:11;3.53;;;1.95;;
59302;SDS011;45074;52.764;6.896;2023-10-08T02:46:42;4.22;;;2.10;;
59302;SDS011;45074;52.764;6.896;2023-10-08T02:49:10;3.72;;;1.98;;
59302;SDS011;45074;52.764;6.896;2023-10-08T02:51:40;5.20;;;2.13;;
59302;SDS011;45074;52.764;6.896;2023-10-08T02:54:09;4.77;;;2.50;;
59302;SDS011;45074;52.764;6.896;2023-10-08T02:56:42;5.68;;;2.00;;
59302;SDS011;45074;52.764;6.896;2023-10-08T02:59:10;6.38;;;2.70;;
59302;SDS011;45074;52.764;6.896;2023-10-08T03:01:37;4.50;;;2.38;;
59302;SDS011;45074;52.764;6.896;2023-10-08T03:04:05;5.30;;;2.78;;
59302;SDS011;45074;52.764;6.896;2023-10-08T03:06:42;4.88;;;2.35;;
59302;SDS011;45074;52.764;6.896;2023-10-08T03:09:08;4.38;;;2.30;;
59302;SDS011;45074;52.764;6.896;2023-10-08T03:11:34;6.63;;;2.85;;
59302;SDS011;45074;52.764;6.896;2023-10-08T03:14:02;4.88;;;2.20;;
59302;SDS011;45074;52.764;6.896;2023-10-08T03:16:28;5.07;;;2.20;;
59302;SDS011;45074;52.764;6.896;2023-10-08T03:21:31;5.10;;;2.30;;
59302;SDS011;45074;52.764;6.896;2023-10-08T03:24:03;4.88;;;2.30;;
59302;SDS011;45074;52.764;6.896;2023-10-08T03:26:37;5.47;;;2.17;;
59302;SDS011;45074;52.764;6.896;2023-10-08T03:29:05;4.32;;;2.17;;
59302;SDS011;45074;52.764;6.896;2023-10-08T03:31:40;5.07;;;2.20;;
59302;SDS011;45074;52.764;6.896;2023-10-08T03:34:15;5.90;;;2.20;;
59302;SDS011;45074;52.764;6.896;2023-10-08T03:36:43;4.00;;;1.95;;
59302;SDS011;45074;52.764;6.896;2023-10-08T03:39:10;5.18;;;2.25;;
59302;SDS011;45074;52.764;6.896;2023-10-08T03:41:38;7.30;;;3.95;;
59302;SDS011;45074;52.764;6.896;2023-10-08T03:44:16;9.20;;;5.00;;
59302;SDS011;45074;52.764;6.896;2023-10-08T03:46:43;7.13;;;4.97;;
59302;SDS011;45074;52.764;6.896;2023-10-08T03:49:12;8.77;;;5.43;;
59302;SDS011;45074;52.764;6.896;2023-10-08T03:51:47;7.25;;;4.68;;
59302;SDS011;45074;52.764;6.896;2023-10-08T03:54:17;5.78;;;3.08;;
59302;SDS011;45074;52.764;6.896;2023-10-08T03:56:59;4.47;;;2.25;;
59302;SDS011;45074;52.764;6.896;2023-10-08T03:59:26;6.00;;;1.98;;
59302;SDS011;45074;52.764;6.896;2023-10-08T04:02:01;3.58;;;1.90;;
59302;SDS011;45074;52.764;6.896;2023-10-08T04:04:39;4.20;;;1.92;;
59302;SDS011;45074;52.764;6.896;2023-10-08T04:07:15;4.57;;;2.00;;
59302;SDS011;45074;52.764;6.896;2023-10-08T04:10:01;6.85;;;1.88;;
59302;SDS011;45074;52.764;6.896;2023-10-08T04:12:33;4.82;;;1.80;;
59302;SDS011;45074;52.764;6.896;2023-10-08T04:15:00;5.63;;;1.90;;
59302;SDS011;45074;52.764;6.896;2023-10-08T04:17:33;4.43;;;1.90;;
59302;SDS011;45074;52.764;6.896;2023-10-08T04:20:09;3.38;;;1.70;;
59302;SDS011;45074;52.764;6.896;2023-10-08T04:23:00;3.60;;;1.77;;
59302;SDS011;45074;52.764;6.896;2023-10-08T04:25:29;4.55;;;1.92;;
59302;SDS011;45074;52.764;6.896;2023-10-08T04:27:56;4.97;;;1.75;;
59302;SDS011;45074;52.764;6.896;2023-10-08T04:30:26;3.92;;;1.88;;
59302;SDS011;45074;52.764;6.896;2023-10-08T04:33:05;3.03;;;1.67;;
59302;SDS011;45074;52.764;6.896;2023-10-08T04:35:42;3.97;;;1.60;;
59302;SDS011;45074;52.764;6.896;2023-10-08T04:38:24;4.28;;;1.58;;
59302;SDS011;45074;52.764;6.896;2023-10-08T04:40:51;5.93;;;1.95;;
59302;SDS011;45074;52.764;6.896;2023-10-08T04:43:21;4.35;;;1.60;;
59302;SDS011;45074;52.764;6.896;2023-10-08T04:48:22;4.97;;;1.80;;
59302;SDS011;45074;52.764;6.896;2023-10-08T04:50:54;5.03;;;1.73;;
59302;SDS011;45074;52.764;6.896;2023-10-08T04:53:30;3.28;;;1.67;;
59302;SDS011;45074;52.764;6.896;2023-10-08T04:56:00;8.05;;;1.92;;
59302;SDS011;45074;52.764;6.896;2023-10-08T04:58:30;5.45;;;1.70;;
59302;SDS011;45074;52.764;6.896;2023-10-08T05:00:59;5.30;;;1.77;;
59302;SDS011;45074;52.764;6.896;2023-10-08T05:03:42;4.03;;;1.70;;
59302;SDS011;45074;52.764;6.896;2023-10-08T05:06:24;3.28;;;1.73;;
59302;SDS011;45074;52.764;6.896;2023-10-08T05:08:59;3.90;;;1.67;;
59302;SDS011;45074;52.764;6.896;2023-10-08T05:11:35;3.58;;;1.48;;
59302;SDS011;45074;52.764;6.896;2023-10-08T05:19:38;5.78;;;1.40;;
59302;SDS011;45074;52.764;6.896;2023-10-08T05:22:16;4.43;;;1.70;;
59302;SDS011;45074;52.764;6.896;2023-10-08T05:24:42;6.32;;;1.80;;
59302;SDS011;45074;52.764;6.896;2023-10-08T05:27:16;2.97;;;1.40;;
59302;SDS011;45074;52.764;6.896;2023-10-08T05:30:03;4.35;;;1.50;;
59302;SDS011;45074;52.764;6.896;2023-10-08T05:32:40;5.28;;;2.05;;
59302;SDS011;45074;52.764;6.896;2023-10-08T05:35:30;9.55;;;3.42;;
59302;SDS011;45074;52.764;6.896;2023-10-08T05:38:17;6.70;;;2.10;;
59302;SDS011;45074;52.764;6.896;2023-10-08T05:40:59;6.75;;;2.75;;
59302;SDS011;45074;52.764;6.896;2023-10-08T05:43:26;10.27;;;4.22;;
59302;SDS011;45074;52.764;6.896;2023-10-08T05:46:07;8.55;;;3.65;;
59302;SDS011;45074;52.764;6.896;2023-10-08T05:48:46;7.20;;;2.70;;
59302;SDS011;45074;52.764;6.896;2023-10-08T05:51:26;7.82;;;2.33;;
59302;SDS011;45074;52.764;6.896;2023-10-08T05:54:18;7.45;;;1.90;;
59302;SDS011;45074;52.764;6.896;2023-10-08T05:57:00;5.70;;;1.70;;
59302;SDS011;45074;52.764;6.896;2023-10-08T05:59:35;6.53;;;1.48;;
59302;SDS011;45074;52.764;6.896;2023-10-08T06:02:23;6.50;;;1.60;;
59302;SDS011;45074;52.764;6.896;2023-10-08T06:04:52;6.38;;;1.60;;
59302;SDS011;45074;52.764;6.896;2023-10-08T06:07:39;4.63;;;1.63;;
59302;SDS011;45074;52.764;6.896;2023-10-08T06:10:18;6.80;;;1.65;;
59302;SDS011;45074;52.764;6.896;2023-10-08T06:15:27;4.32;;;1.30;;
59302;SDS011;45074;52.764;6.896;2023-10-08T06:18:34;3.92;;;1.35;;
59302;SDS011;45074;52.764;6.896;2023-10-08T06:21:01;7.10;;;1.60;;
59302;SDS011;45074;52.764;6.896;2023-10-08T06:23:37;6.93;;;1.83;;
59302;SDS011;45074;52.764;6.896;2023-10-08T06:26:04;6.97;;;1.65;;
59302;SDS011;45074;52.764;6.896;2023-10-08T06:28:41;4.97;;;1.50;;
59302;SDS011;45074;52.764;6.896;2023-10-08T06:31:09;5.63;;;1.60;;
59302;SDS011;45074;52.764;6.896;2023-10-08T06:33:41;2.60;;;1.30;;
59302;SDS011;45074;52.764;6.896;2023-10-08T06:36:08;6.68;;;1.83;;
59302;SDS011;45074;52.764;6.896;2023-10-08T06:38:37;5.53;;;1.85;;
59302;SDS011;45074;52.764;6.896;2023-10-08T06:41:15;5.30;;;1.60;;
59302;SDS011;45074;52.764;6.896;2023-10-08T06:43:45;7.45;;;1.75;;
59302;SDS011;45074;52.764;6.896;2023-10-08T06:46:15;6.68;;;1.65;;
59302;SDS011;45074;52.764;6.896;2023-10-08T06:48:44;5.45;;;1.90;;
59302;SDS011;45074;52.764;6.896;2023-10-08T06:51:11;6.25;;;1.67;;
59302;SDS011;45074;52.764;6.896;2023-10-08T06:53:43;6.38;;;1.60;;
59302;SDS011;45074;52.764;6.896;2023-10-08T06:56:13;5.90;;;1.50;;
59302;SDS011;45074;52.764;6.896;2023-10-08T06:58:40;6.95;;;1.75;;
59302;SDS011;45074;52.764;6.896;2023-10-08T07:01:12;5.63;;;1.50;;
59302;SDS011;45074;52.764;6.896;2023-10-08T07:03:38;5.68;;;1.65;;
59302;SDS011;45074;52.764;6.896;2023-10-08T07:06:04;8.35;;;1.50;;
59302;SDS011;45074;52.764;6.896;2023-10-08T07:08:42;5.43;;;1.73;;
59302;SDS011;45074;52.764;6.896;2023-10-08T07:11:11;3.55;;;1.40;;
59302;SDS011;45074;52.764;6.896;2023-10-08T07:13:38;7.47;;;1.52;;
59302;SDS011;45074;52.764;6.896;2023-10-08T07:16:07;8.40;;;1.70;;
59302;SDS011;45074;52.764;6.896;2023-10-08T07:18:39;8.10;;;1.83;;
59302;SDS011;45074;52.764;6.896;2023-10-08T07:21:07;5.20;;;1.60;;
59302;SDS011;45074;52.764;6.896;2023-10-08T07:23:39;9.25;;;1.60;;
59302;SDS011;45074;52.764;6.896;2023-10-08T07:26:24;7.75;;;1.40;;
59302;SDS011;45074;52.764;6.896;2023-10-08T07:28:51;6.90;;;1.83;;
59302;SDS011;45074;52.764;6.896;2023-10-08T07:31:21;7.68;;;1.50;;
59302;SDS011;45074;52.764;6.896;2023-10-08T07:33:53;5.43;;;1.42;;
59302;SDS011;45074;52.764;6.896;2023-10-08T07:36:26;5.85;;;1.50;;
59302;SDS011;45074;52.764;6.896;2023-10-08T07:38:52;7.10;;;1.50;;
59302;SDS011;45074;52.764;6.896;2023-10-08T07:41:18;7.07;;;1.50;;
59302;SDS011;45074;52.764;6.896;2023-10-08T07:43:45;5.35;;;1.30;;
59302;SDS011;45074;52.764;6.896;2023-10-08T07:46:23;8.80;;;1.63;;
59302;SDS011;45074;52.764;6.896;2023-10-08T07:48:51;6.93;;;1.80;;
59302;SDS011;45074;52.764;6.896;2023-10-08T07:51:17;5.57;;;1.60;;
59302;SDS011;45074;52.764;6.896;2023-10-08T07:53:49;10.15;;;1.90;;
59302;SDS011;45074;52.764;6.896;2023-10-08T07:56:19;6.40;;;1.77;;
59302;SDS011;45074;52.764;6.896;2023-10-08T07:58:45;9.13;;;1.80;;
59302;SDS011;45074;52.764;6.896;2023-10-08T08:01:13;8.13;;;1.70;;
59302;SDS011;45074;52.764;6.896;2023-10-08T08:03:39;7.63;;;1.48;;
59302;SDS011;45074;52.764;6.896;2023-10-08T08:06:07;6.25;;;1.60;;
59302;SDS011;45074;52.764;6.896;2023-10-08T08:08:34;7.15;;;1.38;;
59302;SDS011;45074;52.764;6.896;2023-10-08T08:11:07;7.07;;;1.50;;
59302;SDS011;45074;52.764;6.896;2023-10-08T08:13:43;6.60;;;1.30;;
59302;SDS011;45074;52.764;6.896;2023-10-08T08:16:13;6.13;;;1.40;;
59302;SDS011;45074;52.764;6.896;2023-10-08T08:18:48;7.18;;;1.38;;
59302;SDS011;45074;52.764;6.896;2023-10-08T08:21:17;7.90;;;1.50;;
59302;SDS011;45074;52.764;6.896;2023-10-08T08:23:47;8.15;;;1.30;;
59302;SDS011;45074;52.764;6.896;2023-10-08T08:26:14;6.63;;;1.20;;
59302;SDS011;45074;52.764;6.896;2023-10-08T08:28:57;5.53;;;1.65;;
59302;SDS011;45074;52.764;6.896;2023-10-08T08:33:51;7.57;;;1.45;;
59302;SDS011;45074;52.764;6.896;2023-10-08T08:36:18;7.38;;;1.33;;
59302;SDS011;45074;52.764;6.896;2023-10-08T08:38:46;4.20;;;1.13;;
59302;SDS011;45074;52.764;6.896;2023-10-08T08:41:12;6.00;;;1.30;;
59302;SDS011;45074;52.764;6.896;2023-10-08T08:43:42;4.03;;;1.02;;
59302;SDS011;45074;52.764;6.896;2023-10-08T08:46:09;7.45;;;1.33;;
59302;SDS011;45074;52.764;6.896;2023-10-08T08:48:42;8.30;;;1.50;;
59302;SDS011;45074;52.764;6.896;2023-10-08T08:51:11;5.90;;;1.30;;
59302;SDS011;45074;52.764;6.896;2023-10-08T08:53:38;8.02;;;1.20;;
59302;SDS011;45074;52.764;6.896;2023-10-08T08:56:06;6.63;;;1.48;;
59302;SDS011;45074;52.764;6.896;2023-10-08T08:58:34;5.32;;;1.52;;
59302;SDS011;45074;52.764;6.896;2023-10-08T09:01:00;5.47;;;1.00;;
59302;SDS011;45074;52.764;6.896;2023-10-08T09:03:28;8.00;;;1.60;;
59302;SDS011;45074;52.764;6.896;2023-10-08T09:05:57;7.25;;;1.60;;
59302;SDS011;45074;52.764;6.896;2023-10-08T09:08:27;5.38;;;1.42;;
59302;SDS011;45074;52.764;6.896;2023-10-08T09:10:57;6.18;;;1.60;;
59302;SDS011;45074;52.764;6.896;2023-10-08T09:13:26;7.40;;;1.40;;
59302;SDS011;45074;52.764;6.896;2023-10-08T09:15:52;6.45;;;1.40;;
59302;SDS011;45074;52.764;6.896;2023-10-08T09:18:48;7.30;;;1.55;;
59302;SDS011;45074;52.764;6.896;2023-10-08T09:21:16;6.85;;;1.73;;
59302;SDS011;45074;52.764;6.896;2023-10-08T09:23:44;9.40;;;1.70;;
59302;SDS011;45074;52.764;6.896;2023-10-08T09:26:21;5.95;;;1.67;;
59302;SDS011;45074;52.764;6.896;2023-10-08T09:28:52;8.77;;;1.63;;
59302;SDS011;45074;52.764;6.896;2023-10-08T09:31:22;9.07;;;1.35;;
59302;SDS011;45074;52.764;6.896;2023-10-08T09:33:54;7.80;;;1.70;;
59302;SDS011;45074;52.764;6.896;2023-10-08T09:36:21;6.25;;;1.38;;
59302;SDS011;45074;52.764;6.896;2023-10-08T09:38:57;7.50;;;1.38;;
59302;SDS011;45074;52.764;6.896;2023-10-08T09:41:25;8.20;;;1.45;;
59302;SDS011;45074;52.764;6.896;2023-10-08T09:43:54;5.93;;;1.42;;
59302;SDS011;45074;52.764;6.896;2023-10-08T09:46:22;6.18;;;1.20;;
59302;SDS011;45074;52.764;6.896;2023-10-08T09:48:55;5.60;;;1.23;;
59302;SDS011;45074;52.764;6.896;2023-10-08T09:51:24;6.80;;;1.13;;
59302;SDS011;45074;52.764;6.896;2023-10-08T09:54:05;6.43;;;1.40;;
59302;SDS011;45074;52.764;6.896;2023-10-08T09:56:39;6.90;;;1.30;;
59302;SDS011;45074;52.764;6.896;2023-10-08T09:59:05;7.70;;;1.33;;
59302;SDS011;45074;52.764;6.896;2023-10-08T10:01:34;7.75;;;1.40;;
59302;SDS011;45074;52.764;6.896;2023-10-08T10:04:08;5.30;;;1.40;;
59302;SDS011;45074;52.764;6.896;2023-10-08T10:06:35;7.30;;;1.20;;
59302;SDS011;45074;52.764;6.896;2023-10-08T10:09:01;7.20;;;1.20;;
59302;SDS011;45074;52.764;6.896;2023-10-08T10:11:31;7.30;;;1.42;;
59302;SDS011;45074;52.764;6.896;2023-10-08T10:13:58;11.80;;;1.65;;
59302;SDS011;45074;52.764;6.896;2023-10-08T10:16:27;9.90;;;1.25;;
59302;SDS011;45074;52.764;6.896;2023-10-08T10:18:56;5.57;;;1.20;;
59302;SDS011;45074;52.764;6.896;2023-10-08T10:21:25;7.20;;;1.60;;
59302;SDS011;45074;52.764;6.896;2023-10-08T10:23:52;7.75;;;1.45;;
59302;SDS011;45074;52.764;6.896;2023-10-08T10:26:23;9.60;;;1.38;;
59302;SDS011;45074;52.764;6.896;2023-10-08T10:31:50;8.95;;;1.40;;
59302;SDS011;45074;52.764;6.896;2023-10-08T10:34:23;8.52;;;1.65;;
59302;SDS011;45074;52.764;6.896;2023-10-08T10:36:53;9.25;;;1.55;;
59302;SDS011;45074;52.764;6.896;2023-10-08T10:39:22;7.43;;;1.27;;
59302;SDS011;45074;52.764;6.896;2023-10-08T10:41:51;9.05;;;1.40;;
59302;SDS011;45074;52.764;6.896;2023-10-08T10:44:32;8.13;;;1.45;;
59302;SDS011;45074;52.764;6.896;2023-10-08T10:47:02;5.27;;;1.47;;
59302;SDS011;45074;52.764;6.896;2023-10-08T10:49:43;9.75;;;1.90;;
59302;SDS011;45074;52.764;6.896;2023-10-08T10:52:16;7.55;;;1.63;;
59302;SDS011;45074;52.764;6.896;2023-10-08T10:54:54;6.80;;;1.13;;
59302;SDS011;45074;52.764;6.896;2023-10-08T10:57:25;7.32;;;1.50;;
59302;SDS011;45074;52.764;6.896;2023-10-08T11:00:05;6.03;;;1.23;;
59302;SDS011;45074;52.764;6.896;2023-10-08T11:02:55;7.47;;;1.50;;
59302;SDS011;45074;52.764;6.896;2023-10-08T11:05:34;10.18;;;1.42;;
59302;SDS011;45074;52.764;6.896;2023-10-08T11:08:03;6.30;;;1.30;;
59302;SDS011;45074;52.764;6.896;2023-10-08T11:10:32;7.75;;;1.40;;
59302;SDS011;45074;52.764;6.896;2023-10-08T11:13:24;8.05;;;1.70;;
59302;SDS011;45074;52.764;6.896;2023-10-08T11:15:53;7.90;;;1.50;;
59302;SDS011;45074;52.764;6.896;2023-10-08T11:18:20;8.85;;;1.48;;
59302;SDS011;45074;52.764;6.896;2023-10-08T11:20:47;7.18;;;1.67;;
59302;SDS011;45074;52.764;6.896;2023-10-08T11:26:02;6.32;;;1.20;;
59302;SDS011;45074;52.764;6.896;2023-10-08T11:28:32;10.45;;;1.77;;
59302;SDS011;45074;52.764;6.896;2023-10-08T11:31:05;6.45;;;1.17;;
59302;SDS011;45074;52.764;6.896;2023-10-08T11:33:37;7.78;;;1.50;;
59302;SDS011;45074;52.764;6.896;2023-10-08T11:36:07;6.57;;;1.35;;
59302;SDS011;45074;52.764;6.896;2023-10-08T11:38:52;7.75;;;1.20;;
59302;SDS011;45074;52.764;6.896;2023-10-08T11:41:19;6.80;;;1.42;;
59302;SDS011;45074;52.764;6.896;2023-10-08T11:43:51;10.30;;;1.98;;
59302;SDS011;45074;52.764;6.896;2023-10-08T11:46:24;8.55;;;1.45;;
59302;SDS011;45074;52.764;6.896;2023-10-08T11:48:58;6.75;;;1.40;;
59302;SDS011;45074;52.764;6.896;2023-10-08T11:51:30;5.35;;;1.10;;
59302;SDS011;45074;52.764;6.896;2023-10-08T11:53:57;7.05;;;1.67;;
59302;SDS011;45074;52.764;6.896;2023-10-08T11:56:24;6.80;;;1.25;;
59302;SDS011;45074;52.764;6.896;2023-10-08T11:58:51;7.72;;;1.45;;
59302;SDS011;45074;52.764;6.896;2023-10-08T12:01:17;8.02;;;1.50;;
59302;SDS011;45074;52.764;6.896;2023-10-08T12:03:44;9.43;;;1.38;;
59302;SDS011;45074;52.764;6.896;2023-10-08T12:06:11;6.45;;;1.48;;
59302;SDS011;45074;52.764;6.896;2023-10-08T12:08:41;5.00;;;1.20;;
59302;SDS011;45074;52.764;6.896;2023-10-08T12:11:10;8.80;;;1.75;;
59302;SDS011;45074;52.764;6.896;2023-10-08T12:13:39;8.52;;;1.50;;
59302;SDS011;45074;52.764;6.896;2023-10-08T12:16:13;6.35;;;1.15;;
59302;SDS011;45074;52.764;6.896;2023-10-08T12:18:48;6.28;;;1.40;;
59302;SDS011;45074;52.764;6.896;2023-10-08T12:21:18;6.22;;;1.40;;
59302;SDS011;45074;52.764;6.896;2023-10-08T12:23:44;6.03;;;1.38;;
59302;SDS011;45074;52.764;6.896;2023-10-08T12:26:14;5.40;;;1.40;;
59302;SDS011;45074;52.764;6.896;2023-10-08T12:28:46;7.45;;;1.40;;
59302;SDS011;45074;52.764;6.896;2023-10-08T12:31:16;7.28;;;1.17;;
59302;SDS011;45074;52.764;6.896;2023-10-08T12:33:49;6.43;;;1.27;;
59302;SDS011;45074;52.764;6.896;2023-10-08T12:36:19;5.72;;;1.20;;
59302;SDS011;45074;52.764;6.896;2023-10-08T12:38:48;7.55;;;1.52;;
59302;SDS011;45074;52.764;6.896;2023-10-08T12:41:15;7.63;;;1.40;;
59302;SDS011;45074;52.764;6.896;2023-10-08T12:43:44;6.95;;;1.25;;
59302;SDS011;45074;52.764;6.896;2023-10-08T12:46:13;5.65;;;1.25;;
59302;SDS011;45074;52.764;6.896;2023-10-08T12:48:59;5.22;;;0.98;;
59302;SDS011;45074;52.764;6.896;2023-10-08T12:51:26;5.93;;;1.42;;
59302;SDS011;45074;52.764;6.896;2023-10-08T12:53:57;6.38;;;1.30;;
59302;SDS011;45074;52.764;6.896;2023-10-08T12:56:31;6.38;;;1.30;;
59302;SDS011;45074;52.764;6.896;2023-10-08T12:59:00;6.25;;;1.30;;
59302;SDS011;45074;52.764;6.896;2023-10-08T13:01:29;6.90;;;1.10;;
59302;SDS011;45074;52.764;6.896;2023-10-08T13:03:55;4.70;;;1.10;;
59302;SDS011;45074;52.764;6.896;2023-10-08T13:06:26;5.78;;;1.17;;
59302;SDS011;45074;52.764;6.896;2023-10-08T13:08:56;4.82;;;1.27;;
59302;SDS011;45074;52.764;6.896;2023-10-08T13:11:28;5.85;;;1.27;;
59302;SDS011;45074;52.764;6.896;2023-10-08T13:13:57;6.20;;;1.20;;
59302;SDS011;45074;52.764;6.896;2023-10-08T13:16:24;6.32;;;1.23;;
59302;SDS011;45074;52.764;6.896;2023-10-08T13:18:55;6.03;;;1.10;;
59302;SDS011;45074;52.764;6.896;2023-10-08T13:21:23;5.20;;;1.27;;
59302;SDS011;45074;52.764;6.896;2023-10-08T13:23:53;6.10;;;1.30;;
59302;SDS011;45074;52.764;6.896;2023-10-08T13:26:24;5.97;;;1.30;;
59302;SDS011;45074;52.764;6.896;2023-10-08T13:28:55;4.55;;;1.10;;
59302;SDS011;45074;52.764;6.896;2023-10-08T13:31:22;4.75;;;1.10;;
59302;SDS011;45074;52.764;6.896;2023-10-08T13:33:48;4.43;;;1.13;;
59302;SDS011;45074;52.764;6.896;2023-10-08T13:36:16;5.30;;;1.08;;
59302;SDS011;45074;52.764;6.896;2023-10-08T13:38:42;4.70;;;1.10;;
59302;SDS011;45074;52.764;6.896;2023-10-08T13:41:11;5.50;;;1.33;;
59302;SDS011;45074;52.764;6.896;2023-10-08T13:43:40;7.78;;;1.50;;
59302;SDS011;45074;52.764;6.896;2023-10-08T13:46:10;4.75;;;1.23;;
59302;SDS011;45074;52.764;6.896;2023-10-08T13:48:38;6.60;;;1.15;;
59302;SDS011;45074;52.764;6.896;2023-10-08T13:51:06;4.93;;;1.10;;
59302;SDS011;45074;52.764;6.896;2023-10-08T13:53:38;5.82;;;1.20;;
59302;SDS011;45074;52.764;6.896;2023-10-08T13:56:12;4.15;;;1.05;;
59302;SDS011;45074;52.764;6.896;2023-10-08T13:58:38;3.00;;;0.90;;
59302;SDS011;45074;52.764;6.896;2023-10-08T14:01:11;4.93;;;1.27;;
59302;SDS011;45074;52.764;6.896;2023-10-08T14:03:45;6.13;;;1.45;;
59302;SDS011;45074;52.764;6.896;2023-10-08T14:06:12;4.38;;;1.13;;
59302;SDS011;45074;52.764;6.896;2023-10-08T14:08:39;4.15;;;1.10;;
59302;SDS011;45074;52.764;6.896;2023-10-08T14:11:09;5.95;;;1.30;;
59302;SDS011;45074;52.764;6.896;2023-10-08T14:13:37;6.32;;;1.00;;
59302;SDS011;45074;52.764;6.896;2023-10-08T14:16:07;4.40;;;1.13;;
59302;SDS011;45074;52.764;6.896;2023-10-08T14:18:36;5.10;;;1.20;;
59302;SDS011;45074;52.764;6.896;2023-10-08T14:21:08;11.23;;;1.40;;
59302;SDS011;45074;52.764;6.896;2023-10-08T14:23:38;6.57;;;1.40;;
59302;SDS011;45074;52.764;6.896;2023-10-08T14:26:05;5.75;;;1.20;;
59302;SDS011;45074;52.764;6.896;2023-10-08T14:28:35;3.92;;;1.40;;
59302;SDS011;45074;52.764;6.896;2023-10-08T14:31:17;5.38;;;1.20;;
59302;SDS011;45074;52.764;6.896;2023-10-08T14:33:47;6.10;;;1.35;;
59302;SDS011;45074;52.764;6.896;2023-10-08T14:36:47;7.32;;;1.85;;
59302;SDS011;45074;52.764;6.896;2023-10-08T14:39:32;6.55;;;1.35;;
59302;SDS011;45074;52.764;6.896;2023-10-08T14:42:17;5.03;;;1.17;;
59302;SDS011;45074;52.764;6.896;2023-10-08T14:45:03;5.43;;;1.20;;
59302;SDS011;45074;52.764;6.896;2023-10-08T14:47:35;4.00;;;1.10;;
59302;SDS011;45074;52.764;6.896;2023-10-08T14:50:01;6.65;;;1.40;;
59302;SDS011;45074;52.764;6.896;2023-10-08T14:52:30;6.55;;;1.10;;
59302;SDS011;45074;52.764;6.896;2023-10-08T14:54:56;3.65;;;1.00;;
59302;SDS011;45074;52.764;6.896;2023-10-08T14:57:22;5.13;;;1.33;;
59302;SDS011;45074;52.764;6.896;2023-10-08T14:59:51;5.88;;;1.20;;
59302;SDS011;45074;52.764;6.896;2023-10-08T15:02:17;9.02;;;1.40;;
59302;SDS011;45074;52.764;6.896;2023-10-08T15:04:43;6.25;;;1.48;;
59302;SDS011;45074;52.764;6.896;2023-10-08T15:07:09;6.70;;;1.10;;
59302;SDS011;45074;52.764;6.896;2023-10-08T15:09:36;7.03;;;1.40;;
59302;SDS011;45074;52.764;6.896;2023-10-08T15:12:04;4.80;;;1.17;;
59302;SDS011;45074;52.764;6.896;2023-10-08T15:14:31;5.15;;;1.30;;
59302;SDS011;45074;52.764;6.896;2023-10-08T15:16:58;7.05;;;1.50;;
59302;SDS011;45074;52.764;6.896;2023-10-08T15:19:24;6.70;;;1.27;;
59302;SDS011;45074;52.764;6.896;2023-10-08T15:21:51;7.43;;;1.40;;
59302;SDS011;45074;52.764;6.896;2023-10-08T15:24:18;5.25;;;1.33;;
59302;SDS011;45074;52.764;6.896;2023-10-08T15:26:46;6.20;;;1.73;;
59302;SDS011;45074;52.764;6.896;2023-10-08T15:29:13;6.30;;;1.25;;
59302;SDS011;45074;52.764;6.896;2023-10-08T15:31:39;4.93;;;1.38;;
59302;SDS011;45074;52.764;6.896;2023-10-08T15:34:06;7.65;;;1.67;;
59302;SDS011;45074;52.764;6.896;2023-10-08T15:36:32;6.53;;;1.58;;
59302;SDS011;45074;52.764;6.896;2023-10-08T15:38:58;5.20;;;1.60;;
59302;SDS011;45074;52.764;6.896;2023-10-08T15:41:24;5.65;;;1.55;;